This is the latest recevied weather packets stored in our database for station/object KK7MLS-13. If no packets are shown the sender has not sent any weather packets the latest 10 day(s).
| Time | Temp. | Humidity | Pressure | Rain* | Wind** | Luminosity | Snow |
|---|---|---|---|---|---|---|---|
| 1777753016 | 18.33° C | 66% | 1014.7 hPa | 0 mm | - | 594 W/m² | - |
| 1777752712 | 17.78° C | 66% | 1015 hPa | 0 mm | - | 758 W/m² | - |
| 1777752408 | 18.33° C | 65% | 1015.2 hPa | 0 mm | - | 767 W/m² | - |
| 1777752104 | 18.33° C | 66% | 1015.2 hPa | 0 mm | - | 661 W/m² | - |
| 1777751803 | 17.22° C | 66% | 1015.2 hPa | 0 mm | - | 810 W/m² | - |
| 1777751499 | 16.67° C | 69% | 1015.1 hPa | 0 mm | - | 838 W/m² | - |
| 1777751195 | 17.22° C | 65% | 1015.2 hPa | 0 mm | - | 335 W/m² | - |
| 1777750892 | 16.67° C | 69% | 1015.4 hPa | 0 mm | - | 758 W/m² | - |
| 1777750589 | 16.11° C | 72% | 1015.5 hPa | 0 mm | - | 543 W/m² | - |
| 1777750286 | 16.67° C | 70% | 1015.3 hPa | 0 mm | - | 404 W/m² | - |
| 1777749981 | 16.11° C | 71% | 1015.4 hPa | 0 mm | - | 384 W/m² | - |
| 1777749679 | 15.56° C | 72% | 1015.5 hPa | 0 mm | - | 304 W/m² | - |
| 1777749376 | 15° C | 74% | 1015.8 hPa | 0 mm | - | 307 W/m² | - |
| 1777749073 | 14.44° C | 75% | 1015.8 hPa | 0 mm | - | 307 W/m² | - |
| 1777748771 | 14.44° C | 73% | 1016.2 hPa | 0 mm | - | 289 W/m² | - |
| 1777748468 | 15° C | 73% | 1016.3 hPa | 0 mm | - | 203 W/m² | - |
| 1777748162 | 14.44° C | 75% | 1016.1 hPa | 0 mm | - | 255 W/m² | - |
| 1777747859 | 14.44° C | 75% | 1016 hPa | 0 mm | - | 289 W/m² | - |
| 1777747555 | 14.44° C | 77% | 1016.1 hPa | 0 mm | - | 282 W/m² | - |
| 1777747251 | 14.44° C | 77% | 1016.2 hPa | 0 mm | - | 329 W/m² | - |
| 1777746948 | 13.89° C | 78% | 1016 hPa | 0 mm | - | 338 W/m² | - |
| 1777746644 | 13.33° C | 80% | 1015.8 hPa | 0 mm | - | 387 W/m² | - |
| 1777746339 | 12.78° C | 82% | 1016 hPa | 0 mm | - | 165 W/m² | - |
| 1777746035 | 12.78° C | 81% | 1015.9 hPa | 0 mm | - | 139 W/m² | - |
| 1777745733 | 12.78° C | 80% | 1016 hPa | 0 mm | - | 91 W/m² | - |
* Rain latest hour (hover to see other rain measurements)
** Current wind speed in m/s (hover to see current wind gust speed)